Stena Suede — ZCEF5 — position and weather

sailwx.info

Track history (hours):
 
Tides and Currents Weather Stations Pressure Air Temp Water Temp Dewpoint Dewpoint Depression Visibility Wind Speed Wind Dir Waves Ship Positions

Stena Suede

Last reported at 2015-Apr-07 00:32 UTC. Time now 2015-Apr-21 02:57 UTC.
Position N 27°38' W 015°16'.
Warning: this ship's position is 14 days out of date.

Length 274 m; draft 8.8 m.

Type: Tanker. MMSI: 310622000.

Date/timePositionNaut miles runAvg speedWind from/ knotsBaromVisibWave heightAir tempDewpointWater temp
2015-Apr-07 00:32N 27°38' W 015°16'1312.7
2015-Apr-06 23:33N 27°50' W 015°16'1211.8
2015-Apr-06 22:33N 28°02' W 015°19'7 7.4
2015-Apr-06 21:32N 28°07' W 015°25'0 0.0
2015-Apr-06 20:23N 28°07' W 015°25'0 0.0
2015-Apr-06 19:26N 28°07' W 015°25'0 0.1
2015-Apr-06 18:33N 28°07' W 015°25'1 1.3
2015-Apr-06 17:32N 28°08' W 015°24'0 0.0
2015-Apr-06 16:32N 28°08' W 015°24'0 0.0
2015-Apr-06 15:23N 28°08' W 015°24'0 0.1
2015-Apr-06 14:25N 28°08' W 015°24'0 0.1
2015-Apr-06 13:26N 28°08' W 015°24'0 0.1
2015-Apr-06 12:25N 28°08' W 015°24'0 0.1
2015-Apr-06 11:25N 28°08' W 015°24'0 0.0
2015-Apr-06 10:29N 28°08' W 015°24'0 0.1
2015-Apr-06 09:33N 28°08' W 015°24'2 1.7
2015-Apr-06 08:34N 28°07' W 015°22'1 0.6
2015-Apr-06 07:33N 28°07' W 015°22'6 6.2
2015-Apr-06 06:34N 28°08' W 015°15'10 9.7
2015-Apr-06 05:33N 28°09' W 015°04'10 9.8
2015-Apr-06 04:33N 28°16' W 014°56'1111.0
2015-Apr-06 03:33N 28°27' W 014°53'1111.3
2015-Apr-06 02:33N 28°38' W 014°50'1111.4
2015-Apr-06 01:33N 28°49' W 014°47'43512.1
2015-Apr-04 13:29N 35°52' W 012°47'1212.8
2015-Apr-04 12:31N 36°04' W 012°43'8812.3
2015-Apr-04 05:18N 37°30' W 012°17'912.3
2015-Apr-04 04:31N 37°39' W 012°14'1212.4
2015-Apr-04 03:33N 37°51' W 012°11'1212.4
2015-Apr-04 02:33N 38°03' W 012°07'1312.6
2015-Apr-04 01:33N 38°15' W 012°04'1312.7
2015-Apr-04 00:33N 38°27' W 011°60'1312.7
2015-Apr-03 23:33N 38°40' W 011°56'1312.8
2015-Apr-03 22:33N 38°52' W 011°52'1212.5
2015-Apr-03 21:34N 39°04' W 011°48'1312.7
2015-Apr-03 20:33N 39°17' W 011°45'1313.0
2015-Apr-03 19:32N 39°30' W 011°41'1313.0
2015-Apr-03 18:33N 39°42' W 011°37'1312.9
2015-Apr-03 17:33N 39°55' W 011°32'1312.7
2015-Apr-03 16:33N 40°07' W 011°29'  
2015-Apr-01 02:29N 50°19' W 000°57'4213.6
2015-Mar-31 23:25N 50°30' E 000°06'1113.1
2015-Mar-31 22:33N 50°33' E 000°23'1211.9
2015-Mar-31 21:33N 50°38' E 000°41'1211.9
2015-Mar-31 20:33N 50°45' E 000°56'1211.8
2015-Mar-31 19:33N 50°51' E 001°12'1413.6
2015-Mar-31 18:33N 51°01' E 001°27'1615.6
2015-Mar-31 17:33N 51°12' E 001°44'1515.0
2015-Mar-31 16:34N 51°25' E 001°56'1413.6
2015-Mar-31 15:33N 51°36' E 002°10'1212.4
2015-Mar-31 14:33N 51°44' E 002°24'135 9.6
2015-Mar-31 00:33N 53°47' E 000°54'1313.6
2015-Mar-30 23:33N 53°42' E 000°33'9 9.2
2015-Mar-30 22:33N 53°36' E 000°20'1111.2
2015-Mar-30 21:33N 53°36' E 000°01'7 6.6
2015-Mar-30 20:31N 53°38' W 000°10'0 0.0
2015-Mar-30 19:31N 53°38' W 000°10'0 0.0
2015-Mar-30 18:31N 53°38' W 000°10'0 0.0
2015-Mar-30 17:31N 53°38' W 000°10'0 0.0
2015-Mar-30 16:31N 53°38' W 000°10'0 0.0
2015-Mar-30 15:31N 53°38' W 000°10'0 0.0
2015-Mar-30 14:31N 53°38' W 000°10'0 0.0
2015-Mar-30 13:31N 53°38' W 000°10'0 0.0
2015-Mar-30 12:28N 53°38' W 000°10'0 0.0
2015-Mar-30 11:31N 53°38' W 000°10'0 0.0
2015-Mar-30 10:31N 53°38' W 000°10'0 0.0
2015-Mar-30 09:31N 53°38' W 000°10'0 0.0
2015-Mar-30 08:31N 53°38' W 000°10'0 0.0
2015-Mar-30 07:31N 53°38' W 000°10'0 0.0
2015-Mar-30 06:31N 53°38' W 000°10'0 0.0
2015-Mar-30 05:31N 53°38' W 000°10'0 0.0
2015-Mar-30 04:31N 53°38' W 000°10'0 0.0
2015-Mar-30 03:31N 53°38' W 000°10'0 0.0
2015-Mar-30 02:31N 53°38' W 000°10'0 0.0
2015-Mar-30 01:31N 53°38' W 000°10'0 0.0
2015-Mar-30 00:31N 53°38' W 000°10'0 0.0
2015-Mar-29 23:31N 53°38' W 000°10'0 0.0
2015-Mar-29 22:31N 53°38' W 000°10'0 0.0
2015-Mar-29 21:34N 53°38' W 000°10'0 0.0
2015-Mar-29 20:34N 53°38' W 000°10'0 0.0
2015-Mar-29 19:25N 53°38' W 000°10'0 0.0
2015-Mar-29 18:31N 53°38' W 000°10'0 0.0
2015-Mar-29 17:31N 53°38' W 000°10'0 0.0
2015-Mar-29 16:34N 53°38' W 000°10'0 0.0
2015-Mar-29 15:31N 53°38' W 000°10'0 0.0
2015-Mar-29 14:31N 53°38' W 000°10'0 0.1
2015-Mar-29 13:34N 53°38' W 000°10'4 4.2
2015-Mar-29 12:34N 53°37' W 000°03'10 9.5
2015-Mar-29 11:33N 53°33' E 000°12'9 9.4
2015-Mar-29 10:33N 53°40' E 000°22'2 1.9
2015-Mar-29 09:33N 53°41' E 000°25'4 4.1
2015-Mar-29 08:33N 53°42' E 000°32'4 4.1
2015-Mar-29 07:32N 53°44' E 000°38'4 4.3
2015-Mar-29 06:33N 53°45' E 000°45'2 2.4
2015-Mar-29 05:33N 53°46' E 000°49'139 9.2
2015-Mar-28 14:29N 51°40' E 002°28'1212.8
2015-Mar-28 13:33N 51°32' E 002°15'1212.5
2015-Mar-28 12:33N 51°20' E 002°09'1212.1
2015-Mar-28 11:33N 51°11' E 001°55'1414.1
2015-Mar-28 10:33N 51°03' E 001°38'1414.4
2015-Mar-28 09:34N 50°51' E 001°24'4513.4
2015-Mar-28 06:11N 50°24' E 000°27'  
Track history (hours):
 
Tides and Currents Weather Stations Pressure Air Temp Water Temp Dewpoint Dewpoint Depression Visibility Wind Speed Wind Dir Waves Ship Positions

Stena Suede

Last reported at 2015-Apr-07 00:32 UTC. Time now 2015-Apr-21 02:57 UTC.
Position N 27°38' W 015°16'.
Warning: this ship's position is 14 days out of date.

Length 274 m; draft 8.8 m.

Type: Tanker. MMSI: 310622000.

Date/timePositionNaut miles runAvg speedWind from/ knotsBaromVisibWave heightAir tempDewpointWater temp
2015-Apr-07 00:32N 27°38' W 015°16'1312.7
2015-Apr-06 23:33N 27°50' W 015°16'1211.8
2015-Apr-06 22:33N 28°02' W 015°19'7 7.4
2015-Apr-06 21:32N 28°07' W 015°25'0 0.0
2015-Apr-06 20:23N 28°07' W 015°25'0 0.0
2015-Apr-06 19:26N 28°07' W 015°25'0 0.1
2015-Apr-06 18:33N 28°07' W 015°25'1 1.3
2015-Apr-06 17:32N 28°08' W 015°24'0 0.0
2015-Apr-06 16:32N 28°08' W 015°24'0 0.0
2015-Apr-06 15:23N 28°08' W 015°24'0 0.1
2015-Apr-06 14:25N 28°08' W 015°24'0 0.1
2015-Apr-06 13:26N 28°08' W 015°24'0 0.1
2015-Apr-06 12:25N 28°08' W 015°24'0 0.1
2015-Apr-06 11:25N 28°08' W 015°24'0 0.0
2015-Apr-06 10:29N 28°08' W 015°24'0 0.1
2015-Apr-06 09:33N 28°08' W 015°24'2 1.7
2015-Apr-06 08:34N 28°07' W 015°22'1 0.6
2015-Apr-06 07:33N 28°07' W 015°22'6 6.2
2015-Apr-06 06:34N 28°08' W 015°15'10 9.7
2015-Apr-06 05:33N 28°09' W 015°04'10 9.8
2015-Apr-06 04:33N 28°16' W 014°56'1111.0
2015-Apr-06 03:33N 28°27' W 014°53'1111.3
2015-Apr-06 02:33N 28°38' W 014°50'1111.4
2015-Apr-06 01:33N 28°49' W 014°47'43512.1
2015-Apr-04 13:29N 35°52' W 012°47'1212.8
2015-Apr-04 12:31N 36°04' W 012°43'8812.3
2015-Apr-04 05:18N 37°30' W 012°17'912.3
2015-Apr-04 04:31N 37°39' W 012°14'1212.4
2015-Apr-04 03:33N 37°51' W 012°11'1212.4
2015-Apr-04 02:33N 38°03' W 012°07'1312.6
2015-Apr-04 01:33N 38°15' W 012°04'1312.7
2015-Apr-04 00:33N 38°27' W 011°60'1312.7
2015-Apr-03 23:33N 38°40' W 011°56'1312.8
2015-Apr-03 22:33N 38°52' W 011°52'1212.5
2015-Apr-03 21:34N 39°04' W 011°48'1312.7
2015-Apr-03 20:33N 39°17' W 011°45'1313.0
2015-Apr-03 19:32N 39°30' W 011°41'1313.0
2015-Apr-03 18:33N 39°42' W 011°37'1312.9
2015-Apr-03 17:33N 39°55' W 011°32'1312.7
2015-Apr-03 16:33N 40°07' W 011°29'  
2015-Apr-01 02:29N 50°19' W 000°57'4213.6
2015-Mar-31 23:25N 50°30' E 000°06'1113.1
2015-Mar-31 22:33N 50°33' E 000°23'1211.9
2015-Mar-31 21:33N 50°38' E 000°41'1211.9
2015-Mar-31 20:33N 50°45' E 000°56'1211.8
2015-Mar-31 19:33N 50°51' E 001°12'1413.6
2015-Mar-31 18:33N 51°01' E 001°27'1615.6
2015-Mar-31 17:33N 51°12' E 001°44'1515.0
2015-Mar-31 16:34N 51°25' E 001°56'1413.6
2015-Mar-31 15:33N 51°36' E 002°10'1212.4
2015-Mar-31 14:33N 51°44' E 002°24'135 9.6
2015-Mar-31 00:33N 53°47' E 000°54'1313.6
2015-Mar-30 23:33N 53°42' E 000°33'9 9.2
2015-Mar-30 22:33N 53°36' E 000°20'1111.2
2015-Mar-30 21:33N 53°36' E 000°01'7 6.6
2015-Mar-30 20:31N 53°38' W 000°10'0 0.0
2015-Mar-30 19:31N 53°38' W 000°10'0 0.0
2015-Mar-30 18:31N 53°38' W 000°10'0 0.0
2015-Mar-30 17:31N 53°38' W 000°10'0 0.0
2015-Mar-30 16:31N 53°38' W 000°10'0 0.0
2015-Mar-30 15:31N 53°38' W 000°10'0 0.0
2015-Mar-30 14:31N 53°38' W 000°10'0 0.0
2015-Mar-30 13:31N 53°38' W 000°10'0 0.0
2015-Mar-30 12:28N 53°38' W 000°10'0 0.0
2015-Mar-30 11:31N 53°38' W 000°10'0 0.0
2015-Mar-30 10:31N 53°38' W 000°10'0 0.0
2015-Mar-30 09:31N 53°38' W 000°10'0 0.0
2015-Mar-30 08:31N 53°38' W 000°10'0 0.0
2015-Mar-30 07:31N 53°38' W 000°10'0 0.0
2015-Mar-30 06:31N 53°38' W 000°10'0 0.0
2015-Mar-30 05:31N 53°38' W 000°10'0 0.0
2015-Mar-30 04:31N 53°38' W 000°10'0 0.0
2015-Mar-30 03:31N 53°38' W 000°10'0 0.0
2015-Mar-30 02:31N 53°38' W 000°10'0 0.0
2015-Mar-30 01:31N 53°38' W 000°10'0 0.0
2015-Mar-30 00:31N 53°38' W 000°10'0 0.0
2015-Mar-29 23:31N 53°38' W 000°10'0 0.0
2015-Mar-29 22:31N 53°38' W 000°10'0 0.0
2015-Mar-29 21:34N 53°38' W 000°10'0 0.0
2015-Mar-29 20:34N 53°38' W 000°10'0 0.0
2015-Mar-29 19:25N 53°38' W 000°10'0 0.0
2015-Mar-29 18:31N 53°38' W 000°10'0 0.0
2015-Mar-29 17:31N 53°38' W 000°10'0 0.0
2015-Mar-29 16:34N 53°38' W 000°10'0 0.0
2015-Mar-29 15:31N 53°38' W 000°10'0 0.0
2015-Mar-29 14:31N 53°38' W 000°10'0 0.1
2015-Mar-29 13:34N 53°38' W 000°10'4 4.2
2015-Mar-29 12:34N 53°37' W 000°03'10 9.5
2015-Mar-29 11:33N 53°33' E 000°12'9 9.4
2015-Mar-29 10:33N 53°40' E 000°22'2 1.9
2015-Mar-29 09:33N 53°41' E 000°25'4 4.1
2015-Mar-29 08:33N 53°42' E 000°32'4 4.1
2015-Mar-29 07:32N 53°44' E 000°38'4 4.3
2015-Mar-29 06:33N 53°45' E 000°45'2 2.4
2015-Mar-29 05:33N 53°46' E 000°49'139 9.2
2015-Mar-28 14:29N 51°40' E 002°28'1212.8
2015-Mar-28 13:33N 51°32' E 002°15'1212.5
2015-Mar-28 12:33N 51°20' E 002°09'1212.1
2015-Mar-28 11:33N 51°11' E 001°55'1414.1
2015-Mar-28 10:33N 51°03' E 001°38'1414.4
2015-Mar-28 09:34N 50°51' E 001°24'4513.4
2015-Mar-28 06:11N 50°24' E 000°27'  

Dump ship's entire track history